Meath Environmental Platform

Observations for Trim Patrick St

Time AQI Temp °C Hum % Pres Pa CO μg/m³ H₂S μg/m³ NO μg/m³ NO₂ μg/m³ O₃ μg/m³ SO₂ μg/m³ PM1 μg/m³ PM2.5 μg/m³ PM10 μg/m³
Saturday 8 August 2026
12:44 2 28.9 38 69,143 0 0 1.03 8.77 68.38 11.36 2.86 7.97 8.76
12:43 2 28.9 38 69,143 0 0 1.04 10.1 68.27 10.97 2 7.97 8.77
12:42 2 29 38 69,167 0 0 1 10.06 72.62 11.1 2 7.98 8.78
12:40 2 29.1 38 69,185 0 0 0.98 8.53 69.15 11.73 2 7.18 7.9
12:39 2 29.1 37 69,197 0 0 0.99 8.84 65.84 11.11 2.86 8.8 9.68
12:38 2 29.2 37 69,155 0 0 0.98 8.94 72.53 11.79 2 8.02 8.82
12:36 2 29.2 38 69,159 0 0 0.96 8.76 57.09 10.67 2 7.2 7.92
12:35 2 29.3 39 69,165 0 0 0.94 8.99 66.62 11.72 2 7.13 7.84
12:34 2 29.2 38 69,169 0 0 0.96 9.24 68.47 11.38 2.86 8.71 9.59
12:32 2 29.2 37 69,175 0 0 0.99 8.92 54.43 10.75 2 7.25 7.97
12:31 2 29.1 38 69,177 0 0 0.98 8.73 50.64 10.52 2.86 7.99 8.78
12:28 1 29 39 69,181 0 0 0.98 9.35 68.93 10.41 2.86 8.71 9.58
12:27 1 28.9 39 69,157 0 0 0.99 9.73 68.03 10.13 2 7.88 8.67
12:26 2 28.8 39 69,155 0 0 1 9.83 64.38 9.78 2.86 7.87 8.65
12:25 1 28.7 39 69,149 0 0 1.01 9.98 70.05 10.71 2 7.13 7.84
12:24 1 28.6 39 69,147 0 0 1.02 9.31 51.87 9.53 2 7.1 7.81
12:23 2 28.5 40 69,139 0 0 1.02 9.84 68.43 10.08 2.86 7.84 8.62
12:22 2 28.4 40 69,132 0 0 1.04 13.16 94.45 11.14 2.86 7.84 8.62
12:21 1 28.3 40 69,120 0 0 1.06 10.16 64.56 9.11 2 7.06 7.77
12:20 1 28.2 40 69,110 0 0 1.06 9.85 53.1 9.67 2.86 8.59 9.45